North Portal, Canada
Current Conditions -  °F | °C
As of 9:00 PM on Friday 24 Oct 2014 (Local Time) from CYEN Reporting Station
Clear Clear  
Wind Chill: 36°   Ceiling: Unl
Heat Index: 43°   Visibility: 15mi
Dew Point: 30°   Wind: 13mph
Humidity: 61%   Direction: 280°W
Pressure: 29.98"   Gusts: NA
Location:  49°N, 102.55°W
Report Text: CYEN 250300Z 28011KT 15SM SKC 06/M01 A2998 RMK SLP168
Loading
Personal Weather Stations






























Interactive Weather Map
Tropical Storm Tracking
New forecast layout! Learn more

10-Day Weather Forecast

Advertisements
Track Severe Weather on mobile